sensor_id;sensor_type;location;lat;lon;timestamp;P1;durP1;ratioP1;P2;durP2;ratioP2
76591;SDS011;65481;47.600;19.682;2023-06-10T00:03:38;26.48;;;11.27;;
76591;SDS011;65481;47.600;19.682;2023-06-10T00:08:41;45.58;;;12.55;;
76591;SDS011;65481;47.600;19.682;2023-06-10T00:13:42;24.85;;;12.30;;
76591;SDS011;65481;47.600;19.682;2023-06-10T00:18:42;32.30;;;11.40;;
76591;SDS011;65481;47.600;19.682;2023-06-10T00:23:44;24.67;;;12.90;;
76591;SDS011;65481;47.600;19.682;2023-06-10T00:28:44;25.17;;;12.15;;
76591;SDS011;65481;47.600;19.682;2023-06-10T00:33:45;40.97;;;12.20;;
76591;SDS011;65481;47.600;19.682;2023-06-10T00:38:45;74.80;;;13.25;;
76591;SDS011;65481;47.600;19.682;2023-06-10T00:43:46;80.72;;;14.57;;
76591;SDS011;65481;47.600;19.682;2023-06-10T00:48:47;94.47;;;14.75;;
76591;SDS011;65481;47.600;19.682;2023-06-10T00:53:47;93.28;;;16.02;;
76591;SDS011;65481;47.600;19.682;2023-06-10T00:58:48;89.25;;;16.27;;
76591;SDS011;65481;47.600;19.682;2023-06-10T01:03:50;89.78;;;14.90;;
76591;SDS011;65481;47.600;19.682;2023-06-10T01:08:59;76.05;;;15.23;;
76591;SDS011;65481;47.600;19.682;2023-06-10T01:14:06;58.15;;;13.63;;
76591;SDS011;65481;47.600;19.682;2023-06-10T01:19:09;81.30;;;15.45;;
76591;SDS011;65481;47.600;19.682;2023-06-10T01:24:12;46.97;;;13.55;;
76591;SDS011;65481;47.600;19.682;2023-06-10T01:29:17;58.20;;;13.30;;
76591;SDS011;65481;47.600;19.682;2023-06-10T01:34:21;58.90;;;14.95;;
76591;SDS011;65481;47.600;19.682;2023-06-10T01:39:24;81.75;;;15.80;;
76591;SDS011;65481;47.600;19.682;2023-06-10T01:44:26;35.90;;;13.18;;
76591;SDS011;65481;47.600;19.682;2023-06-10T01:49:26;34.88;;;12.70;;
76591;SDS011;65481;47.600;19.682;2023-06-10T01:54:28;168.05;;;22.40;;
76591;SDS011;65481;47.600;19.682;2023-06-10T01:59:29;67.43;;;16.52;;
76591;SDS011;65481;47.600;19.682;2023-06-10T02:04:29;130.88;;;21.48;;
76591;SDS011;65481;47.600;19.682;2023-06-10T02:09:30;84.80;;;18.05;;
76591;SDS011;65481;47.600;19.682;2023-06-10T02:14:31;101.18;;;19.40;;
76591;SDS011;65481;47.600;19.682;2023-06-10T02:19:32;83.70;;;19.73;;
76591;SDS011;65481;47.600;19.682;2023-06-10T02:24:36;102.85;;;21.10;;
76591;SDS011;65481;47.600;19.682;2023-06-10T02:29:37;138.95;;;23.08;;
76591;SDS011;65481;47.600;19.682;2023-06-10T02:34:38;145.98;;;26.30;;
76591;SDS011;65481;47.600;19.682;2023-06-10T02:39:38;122.20;;;23.20;;
76591;SDS011;65481;47.600;19.682;2023-06-10T02:44:39;120.00;;;26.35;;
76591;SDS011;65481;47.600;19.682;2023-06-10T02:49:39;75.03;;;22.10;;
76591;SDS011;65481;47.600;19.682;2023-06-10T02:54:40;69.03;;;21.92;;
76591;SDS011;65481;47.600;19.682;2023-06-10T02:59:41;56.05;;;21.98;;
76591;SDS011;65481;47.600;19.682;2023-06-10T03:04:41;51.05;;;20.13;;
76591;SDS011;65481;47.600;19.682;2023-06-10T03:09:43;48.42;;;21.13;;
76591;SDS011;65481;47.600;19.682;2023-06-10T03:14:44;49.42;;;21.23;;
76591;SDS011;65481;47.600;19.682;2023-06-10T03:19:44;40.42;;;19.50;;
76591;SDS011;65481;47.600;19.682;2023-06-10T03:24:45;36.47;;;18.90;;
76591;SDS011;65481;47.600;19.682;2023-06-10T03:29:46;55.67;;;18.92;;
76591;SDS011;65481;47.600;19.682;2023-06-10T03:34:47;43.22;;;17.00;;
76591;SDS011;65481;47.600;19.682;2023-06-10T03:39:47;50.47;;;19.65;;
76591;SDS011;65481;47.600;19.682;2023-06-10T03:44:48;43.20;;;18.83;;
76591;SDS011;65481;47.600;19.682;2023-06-10T03:49:48;53.35;;;20.38;;
76591;SDS011;65481;47.600;19.682;2023-06-10T03:54:49;45.72;;;18.98;;
76591;SDS011;65481;47.600;19.682;2023-06-10T03:59:49;43.67;;;16.95;;
76591;SDS011;65481;47.600;19.682;2023-06-10T04:04:50;45.97;;;18.63;;
76591;SDS011;65481;47.600;19.682;2023-06-10T04:09:51;41.58;;;17.98;;
76591;SDS011;65481;47.600;19.682;2023-06-10T04:14:51;51.53;;;19.88;;
76591;SDS011;65481;47.600;19.682;2023-06-10T04:19:52;42.88;;;18.10;;
76591;SDS011;65481;47.600;19.682;2023-06-10T04:37:41;23.25;;;14.65;;
76591;SDS011;65481;47.600;19.682;2023-06-10T04:42:42;20.70;;;13.52;;
76591;SDS011;65481;47.600;19.682;2023-06-10T04:47:42;26.08;;;13.98;;
76591;SDS011;65481;47.600;19.682;2023-06-10T04:52:43;20.30;;;12.98;;
76591;SDS011;65481;47.600;19.682;2023-06-10T04:57:44;18.40;;;13.40;;
76591;SDS011;65481;47.600;19.682;2023-06-10T05:02:45;20.00;;;14.57;;
76591;SDS011;65481;47.600;19.682;2023-06-10T05:07:49;24.15;;;14.70;;
76591;SDS011;65481;47.600;19.682;2023-06-10T05:12:50;18.02;;;13.82;;
76591;SDS011;65481;47.600;19.682;2023-06-10T05:17:50;16.80;;;13.57;;
76591;SDS011;65481;47.600;19.682;2023-06-10T05:22:51;21.75;;;15.05;;
76591;SDS011;65481;47.600;19.682;2023-06-10T05:27:52;18.73;;;14.18;;
76591;SDS011;65481;47.600;19.682;2023-06-10T05:32:53;21.60;;;13.43;;
76591;SDS011;65481;47.600;19.682;2023-06-10T05:37:53;13.82;;;10.65;;
76591;SDS011;65481;47.600;19.682;2023-06-10T05:42:54;12.75;;;8.85;;
76591;SDS011;65481;47.600;19.682;2023-06-10T05:47:55;10.82;;;8.63;;
76591;SDS011;65481;47.600;19.682;2023-06-10T05:52:56;9.98;;;8.43;;
76591;SDS011;65481;47.600;19.682;2023-06-10T05:58:00;9.95;;;8.90;;
76591;SDS011;65481;47.600;19.682;2023-06-10T06:03:01;13.43;;;9.57;;
76591;SDS011;65481;47.600;19.682;2023-06-10T06:08:02;13.23;;;10.93;;
76591;SDS011;65481;47.600;19.682;2023-06-10T06:13:02;12.05;;;9.55;;
76591;SDS011;65481;47.600;19.682;2023-06-10T06:18:03;9.90;;;8.68;;
76591;SDS011;65481;47.600;19.682;2023-06-10T06:23:03;12.48;;;8.90;;
76591;SDS011;65481;47.600;19.682;2023-06-10T06:28:07;11.93;;;9.40;;
76591;SDS011;65481;47.600;19.682;2023-06-10T06:33:10;10.50;;;9.40;;
76591;SDS011;65481;47.600;19.682;2023-06-10T06:38:11;11.50;;;9.63;;
76591;SDS011;65481;47.600;19.682;2023-06-10T06:43:11;14.13;;;9.52;;
76591;SDS011;65481;47.600;19.682;2023-06-10T06:48:12;9.88;;;8.60;;
76591;SDS011;65481;47.600;19.682;2023-06-10T06:53:12;9.77;;;7.53;;
76591;SDS011;65481;47.600;19.682;2023-06-10T06:58:13;10.10;;;8.20;;
76591;SDS011;65481;47.600;19.682;2023-06-10T07:03:13;9.98;;;7.72;;
76591;SDS011;65481;47.600;19.682;2023-06-10T07:08:14;9.10;;;8.13;;
76591;SDS011;65481;47.600;19.682;2023-06-10T07:13:15;8.82;;;7.55;;
76591;SDS011;65481;47.600;19.682;2023-06-10T07:18:15;8.65;;;6.47;;
76591;SDS011;65481;47.600;19.682;2023-06-10T07:23:17;7.95;;;6.90;;
76591;SDS011;65481;47.600;19.682;2023-06-10T07:28:17;6.88;;;6.18;;
76591;SDS011;65481;47.600;19.682;2023-06-10T07:33:18;6.82;;;6.13;;
76591;SDS011;65481;47.600;19.682;2023-06-10T07:38:18;6.55;;;5.95;;
76591;SDS011;65481;47.600;19.682;2023-06-10T07:43:19;6.35;;;5.75;;
76591;SDS011;65481;47.600;19.682;2023-06-10T07:48:19;7.30;;;6.60;;
76591;SDS011;65481;47.600;19.682;2023-06-10T07:53:20;6.97;;;6.15;;
76591;SDS011;65481;47.600;19.682;2023-06-10T07:58:20;7.55;;;6.50;;
76591;SDS011;65481;47.600;19.682;2023-06-10T08:03:22;7.57;;;6.88;;
76591;SDS011;65481;47.600;19.682;2023-06-10T08:08:22;9.77;;;7.47;;
76591;SDS011;65481;47.600;19.682;2023-06-10T08:13:23;6.75;;;5.90;;
76591;SDS011;65481;47.600;19.682;2023-06-10T08:18:23;8.60;;;5.65;;
76591;SDS011;65481;47.600;19.682;2023-06-10T08:23:24;6.90;;;5.50;;
76591;SDS011;65481;47.600;19.682;2023-06-10T08:28:24;6.10;;;5.50;;
76591;SDS011;65481;47.600;19.682;2023-06-10T08:33:25;6.28;;;5.68;;
76591;SDS011;65481;47.600;19.682;2023-06-10T08:38:25;7.57;;;4.97;;
76591;SDS011;65481;47.600;19.682;2023-06-10T08:48:29;3.67;;;3.38;;
76591;SDS011;65481;47.600;19.682;2023-06-10T08:53:31;3.72;;;2.47;;
76591;SDS011;65481;47.600;19.682;2023-06-10T08:58:36;4.40;;;2.73;;
76591;SDS011;65481;47.600;19.682;2023-06-10T09:03:41;3.43;;;3.10;;
76591;SDS011;65481;47.600;19.682;2023-06-10T09:08:42;3.50;;;3.20;;
76591;SDS011;65481;47.600;19.682;2023-06-10T09:13:43;4.32;;;3.63;;
76591;SDS011;65481;47.600;19.682;2023-06-10T09:18:44;3.92;;;3.53;;
76591;SDS011;65481;47.600;19.682;2023-06-10T09:23:44;6.30;;;3.88;;
76591;SDS011;65481;47.600;19.682;2023-06-10T09:28:49;4.90;;;3.53;;
76591;SDS011;65481;47.600;19.682;2023-06-10T09:33:52;5.00;;;3.67;;
76591;SDS011;65481;47.600;19.682;2023-06-10T09:38:56;4.10;;;3.70;;
76591;SDS011;65481;47.600;19.682;2023-06-10T09:43:56;3.42;;;3.13;;
76591;SDS011;65481;47.600;19.682;2023-06-10T09:48:57;4.40;;;4.00;;
76591;SDS011;65481;47.600;19.682;2023-06-10T09:53:58;3.42;;;3.05;;
76591;SDS011;65481;47.600;19.682;2023-06-10T09:58:59;3.53;;;3.17;;
76591;SDS011;65481;47.600;19.682;2023-06-10T10:04:00;3.75;;;3.45;;
76591;SDS011;65481;47.600;19.682;2023-06-10T10:09:01;4.10;;;3.20;;
76591;SDS011;65481;47.600;19.682;2023-06-10T10:14:03;5.15;;;4.68;;
76591;SDS011;65481;47.600;19.682;2023-06-10T10:19:07;5.25;;;4.70;;
76591;SDS011;65481;47.600;19.682;2023-06-10T10:24:17;7.00;;;6.35;;
76591;SDS011;65481;47.600;19.682;2023-06-10T10:29:24;7.15;;;6.03;;
76591;SDS011;65481;47.600;19.682;2023-06-10T10:34:35;5.47;;;4.97;;
76591;SDS011;65481;47.600;19.682;2023-06-10T10:39:49;5.22;;;4.82;;
76591;SDS011;65481;47.600;19.682;2023-06-10T10:44:50;5.43;;;4.95;;
76591;SDS011;65481;47.600;19.682;2023-06-10T10:49:51;5.97;;;4.70;;
76591;SDS011;65481;47.600;19.682;2023-06-10T10:54:53;5.05;;;4.47;;
76591;SDS011;65481;47.600;19.682;2023-06-10T10:59:55;4.93;;;4.47;;
76591;SDS011;65481;47.600;19.682;2023-06-10T11:05:00;4.80;;;4.40;;
76591;SDS011;65481;47.600;19.682;2023-06-10T11:15:07;4.53;;;4.05;;
76591;SDS011;65481;47.600;19.682;2023-06-10T11:20:08;4.15;;;3.65;;
76591;SDS011;65481;47.600;19.682;2023-06-10T11:25:13;5.13;;;3.97;;
76591;SDS011;65481;47.600;19.682;2023-06-10T11:30:23;3.83;;;3.53;;
76591;SDS011;65481;47.600;19.682;2023-06-10T11:35:26;4.22;;;3.80;;
76591;SDS011;65481;47.600;19.682;2023-06-10T11:40:27;4.38;;;3.83;;
76591;SDS011;65481;47.600;19.682;2023-06-10T11:45:30;4.93;;;4.30;;
76591;SDS011;65481;47.600;19.682;2023-06-10T11:50:31;4.10;;;3.70;;
76591;SDS011;65481;47.600;19.682;2023-06-10T12:05:59;4.45;;;3.90;;
76591;SDS011;65481;47.600;19.682;2023-06-10T12:11:00;5.90;;;4.13;;
76591;SDS011;65481;47.600;19.682;2023-06-10T12:16:08;4.57;;;3.97;;
76591;SDS011;65481;47.600;19.682;2023-06-10T12:21:19;4.50;;;4.10;;
76591;SDS011;65481;47.600;19.682;2023-06-10T12:26:21;5.22;;;4.13;;
76591;SDS011;65481;47.600;19.682;2023-06-10T12:31:51;5.88;;;4.97;;
76591;SDS011;65481;47.600;19.682;2023-06-10T12:37:06;4.85;;;4.35;;
76591;SDS011;65481;47.600;19.682;2023-06-10T12:42:13;5.05;;;4.45;;
76591;SDS011;65481;47.600;19.682;2023-06-10T12:47:14;6.00;;;4.70;;
76591;SDS011;65481;47.600;19.682;2023-06-10T12:52:14;5.00;;;4.50;;
76591;SDS011;65481;47.600;19.682;2023-06-10T12:57:15;5.40;;;4.63;;
76591;SDS011;65481;47.600;19.682;2023-06-10T13:02:15;5.10;;;4.53;;
76591;SDS011;65481;47.600;19.682;2023-06-10T13:07:16;4.07;;;3.40;;
76591;SDS011;65481;47.600;19.682;2023-06-10T13:12:17;5.95;;;5.38;;
76591;SDS011;65481;47.600;19.682;2023-06-10T13:17:17;3.80;;;3.50;;
76591;SDS011;65481;47.600;19.682;2023-06-10T13:22:18;3.40;;;3.20;;
76591;SDS011;65481;47.600;19.682;2023-06-10T13:27:20;4.82;;;3.63;;
76591;SDS011;65481;47.600;19.682;2023-06-10T13:32:20;3.90;;;3.53;;
76591;SDS011;65481;47.600;19.682;2023-06-10T13:37:21;7.82;;;4.07;;
76591;SDS011;65481;47.600;19.682;2023-06-10T13:42:21;5.68;;;3.63;;
76591;SDS011;65481;47.600;19.682;2023-06-10T13:47:22;4.15;;;3.80;;
76591;SDS011;65481;47.600;19.682;2023-06-10T13:52:22;4.40;;;3.70;;
76591;SDS011;65481;47.600;19.682;2023-06-10T13:57:23;4.97;;;4.30;;
76591;SDS011;65481;47.600;19.682;2023-06-10T14:02:23;5.78;;;4.13;;
76591;SDS011;65481;47.600;19.682;2023-06-10T14:07:24;4.78;;;4.38;;
76591;SDS011;65481;47.600;19.682;2023-06-10T14:12:26;4.68;;;4.28;;
76591;SDS011;65481;47.600;19.682;2023-06-10T14:17:26;4.45;;;4.03;;
76591;SDS011;65481;47.600;19.682;2023-06-10T14:22:29;4.70;;;4.30;;
76591;SDS011;65481;47.600;19.682;2023-06-10T14:27:30;3.28;;;2.97;;
76591;SDS011;65481;47.600;19.682;2023-06-10T14:32:30;4.40;;;3.07;;
76591;SDS011;65481;47.600;19.682;2023-06-10T14:37:31;6.57;;;4.40;;
76591;SDS011;65481;47.600;19.682;2023-06-10T14:42:31;5.60;;;5.00;;
76591;SDS011;65481;47.600;19.682;2023-06-10T14:47:32;5.30;;;4.07;;
76591;SDS011;65481;47.600;19.682;2023-06-10T14:52:32;5.65;;;3.85;;
76591;SDS011;65481;47.600;19.682;2023-06-10T14:57:33;4.60;;;4.10;;
76591;SDS011;65481;47.600;19.682;2023-06-10T15:02:34;4.05;;;3.40;;
76591;SDS011;65481;47.600;19.682;2023-06-10T15:07:35;4.53;;;3.63;;
76591;SDS011;65481;47.600;19.682;2023-06-10T15:12:36;4.00;;;3.60;;
76591;SDS011;65481;47.600;19.682;2023-06-10T15:17:36;5.95;;;3.55;;
76591;SDS011;65481;47.600;19.682;2023-06-10T15:22:37;3.67;;;3.25;;
76591;SDS011;65481;47.600;19.682;2023-06-10T15:27:37;3.17;;;2.70;;
76591;SDS011;65481;47.600;19.682;2023-06-10T15:32:38;5.68;;;3.00;;
76591;SDS011;65481;47.600;19.682;2023-06-10T15:37:38;5.63;;;3.30;;
76591;SDS011;65481;47.600;19.682;2023-06-10T15:42:39;5.57;;;3.83;;
76591;SDS011;65481;47.600;19.682;2023-06-10T15:47:39;6.60;;;3.95;;
76591;SDS011;65481;47.600;19.682;2023-06-10T15:52:41;4.55;;;3.40;;
76591;SDS011;65481;47.600;19.682;2023-06-10T15:57:42;5.65;;;3.95;;
76591;SDS011;65481;47.600;19.682;2023-06-10T16:02:42;4.00;;;3.58;;
76591;SDS011;65481;47.600;19.682;2023-06-10T16:07:43;4.15;;;3.40;;
76591;SDS011;65481;47.600;19.682;2023-06-10T16:12:43;4.40;;;3.17;;
76591;SDS011;65481;47.600;19.682;2023-06-10T16:17:44;4.60;;;3.42;;
76591;SDS011;65481;47.600;19.682;2023-06-10T16:22:45;4.13;;;3.25;;
76591;SDS011;65481;47.600;19.682;2023-06-10T16:27:46;6.28;;;3.22;;
76591;SDS011;65481;47.600;19.682;2023-06-10T16:32:46;4.47;;;3.20;;
76591;SDS011;65481;47.600;19.682;2023-06-10T16:37:47;5.10;;;3.10;;
76591;SDS011;65481;47.600;19.682;2023-06-10T16:42:48;4.88;;;3.22;;
76591;SDS011;65481;47.600;19.682;2023-06-10T16:47:48;3.72;;;3.42;;
76591;SDS011;65481;47.600;19.682;2023-06-10T16:52:48;5.63;;;4.30;;
76591;SDS011;65481;47.600;19.682;2023-06-10T16:57:49;4.90;;;4.10;;
76591;SDS011;65481;47.600;19.682;2023-06-10T17:02:50;4.03;;;3.63;;
76591;SDS011;65481;47.600;19.682;2023-06-10T17:07:51;3.70;;;3.03;;
76591;SDS011;65481;47.600;19.682;2023-06-10T17:12:51;6.75;;;4.07;;
76591;SDS011;65481;47.600;19.682;2023-06-10T17:17:52;4.07;;;3.40;;
76591;SDS011;65481;47.600;19.682;2023-06-10T17:22:53;4.35;;;3.80;;
76591;SDS011;65481;47.600;19.682;2023-06-10T17:27:53;4.18;;;3.60;;
76591;SDS011;65481;47.600;19.682;2023-06-10T17:32:54;4.93;;;3.78;;
76591;SDS011;65481;47.600;19.682;2023-06-10T17:37:54;6.88;;;4.00;;
76591;SDS011;65481;47.600;19.682;2023-06-10T17:42:55;4.53;;;3.95;;
76591;SDS011;65481;47.600;19.682;2023-06-10T17:47:55;5.43;;;4.30;;
76591;SDS011;65481;47.600;19.682;2023-06-10T17:52:56;6.20;;;4.03;;
76591;SDS011;65481;47.600;19.682;2023-06-10T17:57:56;4.95;;;4.22;;
76591;SDS011;65481;47.600;19.682;2023-06-10T18:02:57;5.32;;;4.78;;
76591;SDS011;65481;47.600;19.682;2023-06-10T18:07:57;5.20;;;4.15;;
76591;SDS011;65481;47.600;19.682;2023-06-10T18:12:58;5.90;;;5.20;;
76591;SDS011;65481;47.600;19.682;2023-06-10T18:17:59;8.00;;;4.30;;
76591;SDS011;65481;47.600;19.682;2023-06-10T18:23:00;6.63;;;4.60;;
76591;SDS011;65481;47.600;19.682;2023-06-10T18:28:01;6.72;;;4.45;;
76591;SDS011;65481;47.600;19.682;2023-06-10T18:33:01;6.60;;;4.70;;
76591;SDS011;65481;47.600;19.682;2023-06-10T18:38:03;8.75;;;5.75;;
76591;SDS011;65481;47.600;19.682;2023-06-10T18:43:03;10.05;;;6.03;;
76591;SDS011;65481;47.600;19.682;2023-06-10T18:48:04;9.38;;;5.22;;
76591;SDS011;65481;47.600;19.682;2023-06-10T18:53:04;6.07;;;5.30;;
76591;SDS011;65481;47.600;19.682;2023-06-10T18:58:05;4.70;;;4.22;;
76591;SDS011;65481;47.600;19.682;2023-06-10T19:03:05;4.90;;;4.40;;
76591;SDS011;65481;47.600;19.682;2023-06-10T19:08:06;5.55;;;5.00;;
76591;SDS011;65481;47.600;19.682;2023-06-10T19:13:06;6.95;;;4.68;;
76591;SDS011;65481;47.600;19.682;2023-06-10T19:18:07;8.70;;;5.90;;
76591;SDS011;65481;47.600;19.682;2023-06-10T19:23:08;5.22;;;3.78;;
76591;SDS011;65481;47.600;19.682;2023-06-10T19:28:09;6.10;;;4.65;;
76591;SDS011;65481;47.600;19.682;2023-06-10T19:33:10;6.38;;;5.15;;
76591;SDS011;65481;47.600;19.682;2023-06-10T19:38:11;5.63;;;4.97;;
76591;SDS011;65481;47.600;19.682;2023-06-10T19:43:11;9.38;;;5.85;;
76591;SDS011;65481;47.600;19.682;2023-06-10T19:48:12;9.20;;;5.78;;
76591;SDS011;65481;47.600;19.682;2023-06-10T19:53:13;6.70;;;5.90;;
76591;SDS011;65481;47.600;19.682;2023-06-10T19:58:13;8.48;;;6.75;;
76591;SDS011;65481;47.600;19.682;2023-06-10T20:03:14;10.32;;;7.00;;
76591;SDS011;65481;47.600;19.682;2023-06-10T20:08:14;10.95;;;7.35;;
76591;SDS011;65481;47.600;19.682;2023-06-10T20:13:15;8.45;;;6.15;;
76591;SDS011;65481;47.600;19.682;2023-06-10T20:18:15;8.07;;;6.25;;
76591;SDS011;65481;47.600;19.682;2023-06-10T20:23:16;7.53;;;5.60;;
76591;SDS011;65481;47.600;19.682;2023-06-10T20:28:17;7.00;;;6.28;;
76591;SDS011;65481;47.600;19.682;2023-06-10T20:33:18;9.65;;;6.93;;
76591;SDS011;65481;47.600;19.682;2023-06-10T20:38:18;8.27;;;6.47;;
76591;SDS011;65481;47.600;19.682;2023-06-10T20:43:19;9.45;;;6.78;;
76591;SDS011;65481;47.600;19.682;2023-06-10T20:48:19;8.27;;;6.75;;
76591;SDS011;65481;47.600;19.682;2023-06-10T20:53:20;9.18;;;6.82;;
76591;SDS011;65481;47.600;19.682;2023-06-10T20:58:20;8.00;;;7.20;;
76591;SDS011;65481;47.600;19.682;2023-06-10T21:03:21;9.07;;;6.78;;
76591;SDS011;65481;47.600;19.682;2023-06-10T21:08:21;10.52;;;8.02;;
76591;SDS011;65481;47.600;19.682;2023-06-10T21:13:22;11.40;;;8.25;;
76591;SDS011;65481;47.600;19.682;2023-06-10T21:18:22;11.50;;;8.95;;
76591;SDS011;65481;47.600;19.682;2023-06-10T21:23:23;11.98;;;9.50;;
76591;SDS011;65481;47.600;19.682;2023-06-10T21:28:23;11.45;;;10.15;;
76591;SDS011;65481;47.600;19.682;2023-06-10T21:33:23;11.52;;;9.70;;
76591;SDS011;65481;47.600;19.682;2023-06-10T21:38:24;13.82;;;10.27;;
76591;SDS011;65481;47.600;19.682;2023-06-10T21:43:25;14.38;;;10.60;;
76591;SDS011;65481;47.600;19.682;2023-06-10T21:48:25;11.50;;;10.38;;
76591;SDS011;65481;47.600;19.682;2023-06-10T21:53:26;12.35;;;10.82;;
76591;SDS011;65481;47.600;19.682;2023-06-10T21:58:26;12.20;;;10.93;;
76591;SDS011;65481;47.600;19.682;2023-06-10T22:03:29;14.45;;;11.63;;
76591;SDS011;65481;47.600;19.682;2023-06-10T22:08:30;13.02;;;11.63;;
76591;SDS011;65481;47.600;19.682;2023-06-10T22:13:31;14.52;;;12.95;;
76591;SDS011;65481;47.600;19.682;2023-06-10T22:18:31;15.20;;;12.75;;
76591;SDS011;65481;47.600;19.682;2023-06-10T22:23:32;14.30;;;12.43;;
76591;SDS011;65481;47.600;19.682;2023-06-10T22:28:32;14.57;;;12.98;;
76591;SDS011;65481;47.600;19.682;2023-06-10T22:33:32;15.48;;;13.20;;
76591;SDS011;65481;47.600;19.682;2023-06-10T22:38:33;18.23;;;13.70;;
76591;SDS011;65481;47.600;19.682;2023-06-10T22:43:33;15.68;;;13.68;;
76591;SDS011;65481;47.600;19.682;2023-06-10T22:48:34;17.98;;;13.40;;
76591;SDS011;65481;47.600;19.682;2023-06-10T22:53:35;16.77;;;13.65;;
76591;SDS011;65481;47.600;19.682;2023-06-10T22:58:35;16.50;;;14.35;;
76591;SDS011;65481;47.600;19.682;2023-06-10T23:03:36;18.08;;;13.45;;
76591;SDS011;65481;47.600;19.682;2023-06-10T23:08:36;19.40;;;13.68;;
76591;SDS011;65481;47.600;19.682;2023-06-10T23:13:37;19.33;;;12.18;;
76591;SDS011;65481;47.600;19.682;2023-06-10T23:18:37;18.15;;;13.48;;
76591;SDS011;65481;47.600;19.682;2023-06-10T23:23:40;17.08;;;12.88;;
76591;SDS011;65481;47.600;19.682;2023-06-10T23:28:40;17.90;;;14.18;;
76591;SDS011;65481;47.600;19.682;2023-06-10T23:33:41;23.67;;;13.75;;
76591;SDS011;65481;47.600;19.682;2023-06-10T23:38:41;22.13;;;14.30;;
76591;SDS011;65481;47.600;19.682;2023-06-10T23:43:42;19.95;;;13.82;;
76591;SDS011;65481;47.600;19.682;2023-06-10T23:48:42;19.75;;;14.15;;
76591;SDS011;65481;47.600;19.682;2023-06-10T23:53:43;21.50;;;14.82;;
76591;SDS011;65481;47.600;19.682;2023-06-10T23:58:43;21.60;;;15.25;;
